Quarteles, New Mexico
Current Conditions -  °F | °C
As of 8:55 AM on Friday 28 Nov 2014 (Local Time) from KLAM Reporting Station
Clear Clear  
Wind Chill: 40°   Ceiling: Unl
Heat Index: 40°   Visibility: 10mi
Dew Point: 19°   Wind: 0mph
Humidity: 42%   Direction: NA
Pressure: 30.32"   Gusts: NA
Location:  35.9775°N, 106.158°W
Report Text: KLAM 281555Z AUTO 00000KT 10SM CLR 05/M07 A3032 RMK AO2 T00451074
Loading
Personal Weather Stations






























Interactive Weather Map New forecast layout! Learn more

10-Day Weather Forecast

Advertisements
Track Severe Weather on mobile